Time;durP1;ratioP1;P1;durP2;ratioP2;P2;SDS_P1;SDS_P2;PMS_P1;PMS_P2;Temp;Humidity;BMP_temperature;BMP_pressure;BME280_temperature;BME280_humidity;BME280_pressure;Samples;Min_cycle;Max_cycle;Signal;HPM_P1;HPM_P2
2022/07/16 00:02:59;;;;;;;8.00;3.65;;;15.00;99.90;;;;;;5031078;28;20136;-76
2022/07/16 00:05:25;;;;;;;8.90;3.30;;;15.00;99.90;;;;;;5014206;28;20150;-75
2022/07/16 00:07:54;;;;;;;4.57;2.88;;;15.00;99.90;;;;;;5058650;28;20055;-74
2022/07/16 00:10:21;;;;;;;7.60;3.53;;;15.00;99.90;;;;;;5115365;27;20047;-76
2022/07/16 00:12:48;;;;;;;7.63;3.38;;;15.10;99.90;;;;;;5137660;27;20051;-74
2022/07/16 00:15:15;;;;;;;5.55;2.95;;;15.20;99.90;;;;;;5118814;27;20043;-76
2022/07/16 00:17:42;;;;;;;6.30;2.95;;;15.20;99.90;;;;;;5119707;27;20051;-75
2022/07/16 00:20:10;;;;;;;6.82;3.08;;;15.30;99.90;;;;;;5137620;27;20406;-75
2022/07/16 00:22:38;;;;;;;5.75;3.22;;;15.30;99.90;;;;;;5137276;27;20483;-76
2022/07/16 00:25:06;;;;;;;5.55;3.30;;;15.40;99.90;;;;;;5135553;27;20095;-75
2022/07/16 00:27:33;;;;;;;6.40;2.78;;;15.50;99.90;;;;;;5119394;27;20480;-75
2022/07/16 00:30:00;;;;;;;6.88;3.47;;;15.60;99.90;;;;;;5118908;27;20479;-75
2022/07/16 00:32:26;;;;;;;7.47;3.80;;;15.60;99.90;;;;;;5118774;27;20047;-74
2022/07/16 00:34:53;;;;;;;5.50;3.42;;;15.70;99.90;;;;;;5110764;28;20047;-75
2022/07/16 00:37:21;;;;;;;10.82;4.43;;;15.70;99.90;;;;;;5116794;28;20051;-74
2022/07/16 00:39:48;;;;;;;6.30;3.35;;;15.80;99.90;;;;;;5098578;28;20052;-75
2022/07/16 00:42:15;;;;;;;7.78;4.00;;;15.80;99.90;;;;;;5116243;28;20104;-74
2022/07/16 00:44:42;;;;;;;5.00;3.42;;;15.70;99.90;;;;;;5116666;28;20104;-73
2022/07/16 00:47:09;;;;;;;6.13;2.90;;;15.70;99.90;;;;;;5116149;28;20063;-74
2022/07/16 00:49:36;;;;;;;5.32;3.00;;;15.60;99.90;;;;;;5116045;28;20048;-73
2022/07/16 00:52:03;;;;;;;4.05;2.40;;;15.60;99.90;;;;;;5116698;28;20043;-74
2022/07/16 00:54:31;;;;;;;3.25;2.08;;;15.60;99.90;;;;;;5116342;28;20472;-74
2022/07/16 00:56:58;;;;;;;3.78;1.55;;;15.60;99.90;;;;;;5097959;28;20442;-73
2022/07/16 00:59:25;;;;;;;3.90;1.58;;;15.50;99.90;;;;;;5098488;28;20120;-75
2022/07/16 01:01:52;;;;;;;2.47;1.58;;;15.50;99.90;;;;;;5116207;28;20407;-74
2022/07/16 01:04:19;;;;;;;4.15;1.67;;;15.50;99.90;;;;;;5097624;28;20462;-75
2022/07/16 01:06:46;;;;;;;5.95;1.60;;;15.50;99.90;;;;;;5096757;28;20043;-74
2022/07/16 01:09:14;;;;;;;2.65;1.65;;;15.40;99.90;;;;;;5121506;27;20047;-75
2022/07/16 01:11:43;;;;;;;3.92;1.58;;;15.40;99.90;;;;;;5117722;27;20134;-74
2022/07/16 01:14:11;;;;;;;3.35;1.80;;;15.50;99.90;;;;;;5136247;27;20089;-75
2022/07/16 01:16:38;;;;;;;4.70;2.05;;;15.30;99.90;;;;;;5136479;27;20055;-73
2022/07/16 01:19:06;;;;;;;4.97;1.90;;;15.30;99.90;;;;;;5136241;27;20067;-75
2022/07/16 01:21:33;;;;;;;6.72;2.10;;;15.30;99.90;;;;;;5135777;27;20490;-74
2022/07/16 01:24:01;;;;;;;8.65;2.22;;;15.30;99.90;;;;;;5129228;27;20513;-74
2022/07/16 01:26:28;;;;;;;5.85;2.63;;;15.30;99.90;;;;;;5115497;28;20248;-75
2022/07/16 01:28:55;;;;;;;5.85;2.38;;;15.30;99.90;;;;;;5097627;28;20172;-75
2022/07/16 01:31:22;;;;;;;6.03;2.85;;;15.20;99.90;;;;;;5115015;28;20096;-74
2022/07/16 01:34:24;;;;;;;5.40;2.60;;;15.30;99.90;;;;;;5097366;28;20055;-75
2022/07/16 01:36:38;;;;;;;5.18;2.63;;;15.30;99.90;;;;;;5115000;28;20123;-74
2022/07/16 01:39:07;;;;;;;5.70;2.47;;;15.30;99.90;;;;;;5114939;27;20071;-75
2022/07/16 01:41:34;;;;;;;8.95;2.72;;;15.30;99.90;;;;;;5097531;28;20051;-73
2022/07/16 01:44:01;;;;;;;8.32;2.72;;;15.30;99.90;;;;;;5115312;28;20047;-74
2022/07/16 01:46:28;;;;;;;4.57;2.30;;;15.30;99.90;;;;;;5114374;28;20495;-73
2022/07/16 01:48:54;;;;;;;13.98;3.05;;;15.30;99.90;;;;;;5115452;28;20043;-73
2022/07/16 01:51:21;;;;;;;4.47;2.05;;;15.30;99.90;;;;;;5115210;28;20055;-75
2022/07/16 01:53:48;;;;;;;5.20;2.13;;;15.20;99.90;;;;;;5115715;27;20055;-74
2022/07/16 01:56:16;;;;;;;7.07;2.80;;;15.30;99.90;;;;;;5096915;28;20051;-74
2022/07/16 01:58:43;;;;;;;8.00;2.25;;;15.30;99.90;;;;;;5097372;28;20052;-75
2022/07/16 02:01:10;;;;;;;5.18;2.13;;;15.30;99.90;;;;;;5096146;28;20093;-75
2022/07/16 02:03:37;;;;;;;6.38;2.00;;;15.30;99.90;;;;;;5096971;28;20101;-74
2022/07/16 02:06:04;;;;;;;7.82;2.35;;;15.30;99.90;;;;;;5114765;28;20079;-74
2022/07/16 02:08:31;;;;;;;6.28;2.00;;;15.20;99.90;;;;;;5133330;27;20050;-75
2022/07/16 02:10:58;;;;;;;6.90;2.22;;;15.20;99.90;;;;;;5135221;27;20051;-74
2022/07/16 02:13:26;;;;;;;10.80;2.85;;;15.20;99.90;;;;;;5116684;27;20166;-74
2022/07/16 02:15:53;;;;;;;6.38;1.83;;;15.20;99.90;;;;;;5135354;27;20403;-74
2022/07/16 02:18:20;;;;;;;3.63;2.08;;;15.10;99.90;;;;;;5116959;27;20422;-74
2022/07/16 02:20:47;;;;;;;7.20;2.03;;;15.10;99.90;;;;;;5116098;27;20096;-74
2022/07/16 02:23:14;;;;;;;5.60;2.03;;;15.00;99.90;;;;;;5116382;27;20063;-75
2022/07/16 02:25:41;;;;;;;3.75;1.67;;;14.90;99.90;;;;;;5135111;27;20488;-74
2022/07/16 02:28:08;;;;;;;5.75;2.00;;;14.80;99.90;;;;;;5116518;27;20456;-75
2022/07/16 02:30:37;;;;;;;6.28;2.05;;;14.80;99.90;;;;;;5135600;27;20051;-75
2022/07/16 02:33:04;;;;;;;5.28;1.85;;;14.70;99.90;;;;;;5134447;27;20388;-75
2022/07/16 02:35:31;;;;;;;5.47;2.13;;;14.70;99.90;;;;;;5134575;27;20043;-74
2022/07/16 02:37:59;;;;;;;5.70;2.00;;;14.60;99.90;;;;;;5115944;27;20043;-74
2022/07/16 02:40:27;;;;;;;6.38;2.17;;;14.60;99.90;;;;;;5134936;27;20047;-74
2022/07/16 02:42:54;;;;;;;4.65;2.15;;;14.50;99.90;;;;;;5134232;27;20071;-74
2022/07/16 02:45:21;;;;;;;4.03;1.63;;;14.50;99.90;;;;;;5116483;27;20103;-75
2022/07/16 02:47:49;;;;;;;4.45;1.77;;;14.40;99.90;;;;;;5115986;27;20486;-74
2022/07/16 02:50:16;;;;;;;3.67;1.80;;;14.40;99.90;;;;;;5116006;27;20051;-75
2022/07/16 02:52:43;;;;;;;4.20;2.28;;;14.30;99.90;;;;;;5102542;28;20051;-74
2022/07/16 02:55:10;;;;;;;5.30;2.03;;;14.30;99.90;;;;;;5096120;28;20047;-74
2022/07/16 02:57:37;;;;;;;6.50;2.10;;;14.30;99.90;;;;;;5095326;28;20130;-74
2022/07/16 03:00:05;;;;;;;9.25;2.10;;;14.20;99.90;;;;;;5095811;28;20085;-74
2022/07/16 03:02:32;;;;;;;5.50;2.03;;;14.10;99.90;;;;;;5095147;28;20139;-75
2022/07/16 03:05:00;;;;;;;9.63;2.17;;;14.10;99.90;;;;;;5095787;28;20191;-74
2022/07/16 03:07:27;;;;;;;5.07;2.10;;;14.00;99.90;;;;;;5108675;27;20491;-74
2022/07/16 03:09:54;;;;;;;8.63;2.22;;;13.90;99.90;;;;;;5133859;27;20115;-75
2022/07/16 03:12:21;;;;;;;6.28;2.53;;;13.80;99.90;;;;;;5115638;27;20051;-76
2022/07/16 03:14:48;;;;;;;6.53;2.38;;;13.80;99.90;;;;;;5133943;27;20119;-75
2022/07/16 03:17:15;;;;;;;4.72;2.40;;;13.70;99.90;;;;;;5133807;27;20379;-75
2022/07/16 03:19:42;;;;;;;5.13;2.30;;;13.70;99.90;;;;;;5134610;27;20047;-75
2022/07/16 03:22:10;;;;;;;7.75;2.65;;;13.60;99.90;;;;;;5133936;27;20054;-75
2022/07/16 03:24:37;;;;;;;5.22;2.38;;;13.60;99.90;;;;;;5115583;28;20078;-75
2022/07/16 03:27:04;;;;;;;3.75;2.00;;;13.50;99.90;;;;;;5133441;27;20054;-75
2022/07/16 03:29:31;;;;;;;7.70;2.58;;;13.50;99.90;;;;;;5115825;27;20088;-75
2022/07/16 03:31:58;;;;;;;5.38;2.58;;;13.40;99.90;;;;;;5115160;27;20495;-77
2022/07/16 03:34:25;;;;;;;8.15;2.78;;;13.40;99.90;;;;;;5134097;27;20117;-77
2022/07/16 03:36:52;;;;;;;5.43;3.08;;;13.40;99.90;;;;;;5125213;27;20040;-75
2022/07/16 03:39:20;;;;;;;5.30;2.50;;;13.40;99.90;;;;;;5094815;28;20055;-74
2022/07/16 03:41:47;;;;;;;6.53;2.70;;;13.40;99.90;;;;;;5095141;28;20052;-74
2022/07/16 03:44:14;;;;;;;8.43;3.03;;;13.30;99.90;;;;;;5113400;28;20051;-75
2022/07/16 03:46:41;;;;;;;6.03;2.67;;;13.30;99.90;;;;;;5098453;28;20058;-75
2022/07/16 03:49:09;;;;;;;7.22;2.55;;;13.30;99.90;;;;;;5099078;28;20096;-75
2022/07/16 03:51:36;;;;;;;6.95;2.60;;;13.40;99.90;;;;;;5124995;27;20104;-74
2022/07/16 03:54:03;;;;;;;6.70;2.67;;;13.40;99.90;;;;;;5120038;27;20059;-75
2022/07/16 03:56:32;;;;;;;7.25;2.80;;;13.40;99.90;;;;;;5137299;27;20055;-74
2022/07/16 03:58:59;;;;;;;7.38;2.47;;;13.30;99.90;;;;;;5119308;27;20083;-73
2022/07/16 04:01:26;;;;;;;10.65;3.15;;;13.30;99.90;;;;;;5118238;27;20532;-74
2022/07/16 04:03:53;;;;;;;8.07;2.60;;;13.30;99.90;;;;;;5119474;27;20398;-74
2022/07/16 04:06:19;;;;;;;5.03;3.40;;;13.30;99.90;;;;;;5137455;27;20134;-74
2022/07/16 04:08:46;;;;;;;6.18;3.28;;;13.20;99.90;;;;;;5137897;27;20444;-75
2022/07/16 04:11:13;;;;;;;5.30;2.55;;;13.20;99.90;;;;;;5119368;27;20044;-73
2022/07/16 04:13:42;;;;;;;6.50;3.10;;;13.20;99.90;;;;;;5137107;27;20559;-73
2022/07/16 04:16:09;;;;;;;8.80;3.03;;;13.20;99.90;;;;;;5137547;27;20059;-73
2022/07/16 04:18:37;;;;;;;13.10;3.03;;;13.20;99.90;;;;;;5137197;27;20054;-74
2022/07/16 04:21:04;;;;;;;7.88;3.30;;;13.20;99.90;;;;;;5118734;27;20134;-74
2022/07/16 04:23:31;;;;;;;10.05;2.63;;;13.30;99.90;;;;;;5119137;27;20059;-74
2022/07/16 04:25:58;;;;;;;7.57;2.45;;;13.30;99.90;;;;;;5137375;27;20552;-74
2022/07/16 04:28:25;;;;;;;5.47;2.78;;;13.30;99.90;;;;;;5118463;27;20088;-74
2022/07/16 04:30:53;;;;;;;5.03;2.28;;;13.30;99.90;;;;;;5108570;28;20051;-74
2022/07/16 04:33:20;;;;;;;5.93;2.65;;;13.30;99.90;;;;;;5098717;28;20101;-74
2022/07/16 04:35:48;;;;;;;6.25;2.75;;;13.40;99.90;;;;;;5116281;28;20043;-72
2022/07/16 04:38:15;;;;;;;6.82;2.40;;;13.40;99.90;;;;;;5116267;28;20058;-74
2022/07/16 04:40:42;;;;;;;7.13;2.30;;;13.50;99.90;;;;;;5098974;28;20055;-74
2022/07/16 04:43:09;;;;;;;5.50;1.90;;;13.60;99.90;;;;;;5098332;28;20159;-75
2022/07/16 04:45:36;;;;;;;16.48;2.53;;;13.60;99.90;;;;;;5098205;28;20051;-74
2022/07/16 04:48:05;;;;;;;6.75;1.85;;;13.80;99.90;;;;;;5097563;28;20056;-74
2022/07/16 04:50:32;;;;;;;7.68;2.33;;;13.90;99.90;;;;;;5098704;28;20058;-75
2022/07/16 04:52:59;;;;;;;8.00;1.98;;;14.00;99.90;;;;;;5116175;28;20101;-74
2022/07/16 04:55:26;;;;;;;7.55;2.30;;;14.10;99.90;;;;;;5116056;28;20101;-75
2022/07/16 04:57:53;;;;;;;6.38;2.10;;;14.20;99.90;;;;;;5097347;28;20055;-75
2022/07/16 05:00:20;;;;;;;5.00;2.50;;;14.30;99.90;;;;;;5119337;27;20043;-75
2022/07/16 05:02:59;;;;;;;7.35;1.83;;;14.30;99.90;;;;;;5117799;27;20043;-75
2022/07/16 05:05:30;;;;;;;5.07;1.65;;;14.30;99.90;;;;;;5136875;27;20486;-75
2022/07/16 05:07:57;;;;;;;8.13;1.83;;;14.40;99.90;;;;;;5116619;27;20047;-74
2022/07/16 05:10:25;;;;;;;7.78;1.92;;;14.50;99.90;;;;;;5134869;27;20452;-75
2022/07/16 05:12:52;;;;;;;5.10;2.08;;;14.50;99.90;;;;;;5117824;27;20484;-75
2022/07/16 05:15:19;;;;;;;6.25;1.88;;;14.60;99.90;;;;;;5118199;27;20078;-74
2022/07/16 05:17:47;;;;;;;5.03;1.20;;;14.70;99.90;;;;;;5135848;27;20054;-74
2022/07/16 05:20:14;;;;;;;10.15;1.83;;;14.80;99.90;;;;;;5118059;27;20579;-75
2022/07/16 05:22:42;;;;;;;7.50;1.42;;;14.90;99.90;;;;;;5136589;27;20316;-75
2022/07/16 05:25:11;;;;;;;3.97;1.45;;;15.00;99.90;;;;;;5129858;27;20092;-75
2022/07/16 05:27:38;;;;;;;6.15;1.38;;;15.40;99.90;;;;;;5097668;27;20046;-76
2022/07/16 05:30:06;;;;;;;5.97;1.90;;;15.70;99.90;;;;;;5125493;27;20051;-76
2022/07/16 05:32:33;;;;;;;4.85;1.77;;;15.90;99.90;;;;;;5108148;27;20048;-76
2022/07/16 05:35:00;;;;;;;6.30;1.35;;;16.40;99.90;;;;;;5113536;27;20103;-76
2022/07/16 05:37:27;;;;;;;5.15;1.45;;;16.50;99.90;;;;;;5128244;27;20067;-76
2022/07/16 05:39:55;;;;;;;5.55;1.42;;;16.70;99.90;;;;;;5107464;27;20494;-76
2022/07/16 05:42:22;;;;;;;6.10;1.70;;;16.90;99.90;;;;;;5110910;27;20511;-76
2022/07/16 05:44:49;;;;;;;7.05;1.30;;;17.10;99.90;;;;;;5131198;27;20112;-77
2022/07/16 05:47:15;;;;;;;9.35;1.77;;;17.20;99.90;;;;;;5102163;28;20051;-78
2022/07/16 05:49:42;;;;;;;11.52;1.95;;;17.40;99.90;;;;;;5106666;28;20130;-76
2022/07/16 05:52:09;;;;;;;5.70;1.60;;;17.60;99.90;;;;;;5110438;28;20587;-76
2022/07/16 05:54:36;;;;;;;8.95;1.17;;;17.60;99.90;;;;;;5111974;28;20051;-75
2022/07/16 05:57:04;;;;;;;6.40;1.33;;;17.60;99.90;;;;;;5104824;28;20040;-75
2022/07/16 05:59:31;;;;;;;3.40;1.17;;;17.70;99.90;;;;;;5110483;28;20652;-75
2022/07/16 06:01:58;;;;;;;12.10;1.70;;;17.90;99.90;;;;;;5109691;28;20092;-75
2022/07/16 06:04:25;;;;;;;5.47;1.40;;;18.00;99.90;;;;;;5106925;28;20518;-78
2022/07/16 06:06:52;;;;;;;8.75;1.50;;;18.10;99.90;;;;;;5107185;28;20809;-72
2022/07/16 06:09:19;;;;;;;3.67;1.45;;;18.20;99.90;;;;;;5107824;28;20056;-76
2022/07/16 06:11:46;;;;;;;6.43;1.45;;;18.30;99.90;;;;;;5107186;28;20055;-75
2022/07/16 06:14:14;;;;;;;6.97;1.75;;;18.30;99.90;;;;;;5110647;28;20057;-75
2022/07/16 06:16:41;;;;;;;6.15;1.17;;;18.50;99.90;;;;;;5110976;28;20048;-75
2022/07/16 06:19:08;;;;;;;5.22;1.73;;;18.60;99.90;;;;;;5110865;28;20407;-73
2022/07/16 06:21:35;;;;;;;6.22;1.25;;;18.80;99.90;;;;;;5107272;28;20047;-75
2022/07/16 06:24:02;;;;;;;5.03;1.00;;;19.00;99.90;;;;;;5107145;28;20051;-76
2022/07/16 06:26:29;;;;;;;6.03;1.30;;;19.20;99.90;;;;;;5107907;28;20040;-75
2022/07/16 06:28:56;;;;;;;5.78;1.63;;;19.30;99.90;;;;;;5106647;28;20483;-74
2022/07/16 06:31:24;;;;;;;4.80;1.15;;;19.60;99.90;;;;;;5109518;28;20055;-75
2022/07/16 06:33:51;;;;;;;4.13;1.08;;;19.70;99.90;;;;;;5106608;28;20051;-76
2022/07/16 06:36:18;;;;;;;3.08;1.00;;;19.90;99.90;;;;;;5108297;28;20092;-76
2022/07/16 06:38:45;;;;;;;5.60;1.73;;;20.00;99.90;;;;;;5105785;28;20048;-75
2022/07/16 06:41:12;;;;;;;6.63;1.25;;;20.10;99.90;;;;;;5104146;28;20051;-75
2022/07/16 06:43:38;;;;;;;6.18;1.45;;;20.30;99.90;;;;;;5104857;28;20065;-75
2022/07/16 06:46:06;;;;;;;5.55;1.55;;;20.40;99.90;;;;;;5106407;28;20052;-73
2022/07/16 06:48:34;;;;;;;4.35;1.02;;;20.50;99.90;;;;;;5110892;27;20035;-76
2022/07/16 06:51:01;;;;;;;2.25;0.80;;;20.80;99.90;;;;;;5108005;27;20112;-75
2022/07/16 06:53:28;;;;;;;6.05;1.52;;;20.90;99.90;;;;;;5106713;27;20054;-74
2022/07/16 06:55:55;;;;;;;4.60;1.00;;;21.10;99.50;;;;;;5108073;27;20062;-75
2022/07/16 06:58:22;;;;;;;5.93;1.13;;;21.30;98.50;;;;;;5128956;27;20047;-75
2022/07/16 07:00:49;;;;;;;2.47;0.85;;;21.50;97.50;;;;;;5130999;27;20039;-76
2022/07/16 07:03:16;;;;;;;4.03;1.05;;;21.80;96.80;;;;;;5109598;27;20104;-78
2022/07/16 07:05:45;;;;;;;4.20;0.80;;;21.80;95.60;;;;;;5125788;27;20517;-76
2022/07/16 07:08:11;;;;;;;6.18;1.00;;;21.90;94.50;;;;;;5127670;27;20039;-77
2022/07/16 07:10:39;;;;;;;5.07;1.10;;;22.30;95.10;;;;;;5127998;27;20055;-76
2022/07/16 07:13:06;;;;;;;3.22;0.85;;;22.80;94.00;;;;;;5107749;27;20104;-76
2022/07/16 07:15:33;;;;;;;4.72;1.20;;;23.20;92.80;;;;;;5112074;27;20047;-77
2022/07/16 07:18:00;;;;;;;5.13;1.08;;;23.70;91.80;;;;;;5126100;27;20130;-77
2022/07/16 07:20:27;;;;;;;10.25;0.95;;;24.00;90.80;;;;;;5128891;27;20054;-77
2022/07/16 07:22:55;;;;;;;3.08;0.88;;;24.30;90.30;;;;;;5113228;27;20153;-78
2022/07/16 07:25:22;;;;;;;2.92;0.95;;;24.40;86.40;;;;;;5128396;27;20100;-78
2022/07/16 07:27:49;;;;;;;4.72;1.00;;;24.60;87.30;;;;;;5129848;27;20088;-78
2022/07/16 07:30:16;;;;;;;4.50;1.00;;;24.20;86.90;;;;;;5108184;27;20057;-78
2022/07/16 07:32:43;;;;;;;3.05;1.15;;;23.90;87.10;;;;;;5111098;28;20107;-78
2022/07/16 07:35:10;;;;;;;3.28;0.80;;;23.50;88.20;;;;;;5112771;27;20047;-77
2022/07/16 07:37:37;;;;;;;10.95;1.48;;;23.10;88.80;;;;;;5127372;27;20123;-77
2022/07/16 07:40:07;;;;;;;4.40;1.05;;;22.70;89.80;;;;;;5107833;28;20046;-79
2022/07/16 07:42:34;;;;;;;4.43;1.10;;;22.70;88.50;;;;;;5125462;28;20051;-77
2022/07/16 07:45:01;;;;;;;2.80;0.95;;;23.20;89.00;;;;;;5129101;28;20176;-78
2022/07/16 07:47:28;;;;;;;3.65;1.15;;;23.40;88.10;;;;;;5123617;28;20051;-78
2022/07/16 07:49:56;;;;;;;5.78;1.00;;;24.00;88.10;;;;;;5110928;28;20073;-79
2022/07/16 07:52:23;;;;;;;4.75;1.00;;;24.60;87.20;;;;;;5127331;28;20410;-78
2022/07/16 07:54:50;;;;;;;22.02;1.50;;;25.40;86.10;;;;;;5109595;28;20063;-79
2022/07/16 07:57:19;;;;;;;4.68;1.15;;;25.50;82.30;;;;;;5110459;28;20062;-79
2022/07/16 07:59:46;;;;;;;4.07;1.13;;;25.20;82.90;;;;;;5113164;28;20370;-78
2022/07/16 08:02:13;;;;;;;4.75;1.10;;;24.60;84.10;;;;;;5110268;28;20043;-80
2022/07/16 08:04:41;;;;;;;4.70;1.02;;;24.10;83.50;;;;;;5133099;28;20491;-79
2022/07/16 08:07:07;;;;;;;5.47;1.15;;;23.40;83.80;;;;;;5131594;28;20055;-79
2022/07/16 08:09:34;;;;;;;3.13;1.00;;;23.20;84.90;;;;;;5095456;28;20059;-79
2022/07/16 08:12:01;;;;;;;5.15;1.23;;;22.80;85.30;;;;;;5113167;28;20051;-77
2022/07/16 08:14:30;;;;;;;4.53;1.13;;;22.60;85.60;;;;;;5095021;28;20051;-78
2022/07/16 08:16:58;;;;;;;4.05;1.25;;;22.70;85.40;;;;;;5094365;28;20108;-77
2022/07/16 08:19:25;;;;;;;4.75;0.85;;;22.90;85.80;;;;;;5112638;28;20047;-77
2022/07/16 08:21:52;;;;;;;4.22;1.00;;;23.70;85.30;;;;;;5095483;28;20052;-77
2022/07/16 08:27:04;;;;;;;2.80;0.98;;;24.00;84.30;;;;;;5094179;28;20899;-77
2022/07/16 08:29:32;;;;;;;3.83;1.10;;;23.60;84.30;;;;;;5094770;28;20048;-79
2022/07/16 08:31:59;;;;;;;4.10;1.25;;;23.20;84.60;;;;;;5114879;28;20051;-78
2022/07/16 08:34:26;;;;;;;4.50;1.38;;;22.60;85.10;;;;;;5116605;28;20051;-78
2022/07/16 08:36:54;;;;;;;5.57;1.10;;;22.50;85.90;;;;;;5116548;28;20051;-78
2022/07/16 08:39:21;;;;;;;3.33;0.85;;;22.20;86.90;;;;;;5117377;28;20101;-78
2022/07/16 08:41:49;;;;;;;6.90;1.40;;;21.90;87.80;;;;;;5097978;28;20047;-77
2022/07/16 08:44:16;;;;;;;4.47;1.38;;;22.50;87.90;;;;;;5098439;28;20058;-77
2022/07/16 08:46:45;;;;;;;4.18;1.23;;;22.70;87.60;;;;;;5116624;28;20066;-78
2022/07/16 08:49:12;;;;;;;5.28;1.15;;;22.60;86.60;;;;;;5097479;28;20047;-78
2022/07/16 08:51:40;;;;;;;3.08;1.27;;;22.40;87.00;;;;;;5098618;28;20052;-78
2022/07/16 08:54:11;;;;;;;3.58;1.00;;;22.20;86.90;;;;;;5098772;28;20108;-78
2022/07/16 08:56:38;;;;;;;3.58;1.08;;;22.20;85.70;;;;;;5116452;28;20059;-78
2022/07/16 08:59:06;;;;;;;3.55;1.08;;;22.50;85.10;;;;;;5098195;28;20051;-76
2022/07/16 09:01:33;;;;;;;3.78;1.17;;;22.80;83.00;;;;;;5097789;28;20094;-76
2022/07/16 09:04:03;;;;;;;5.20;1.20;;;23.50;82.60;;;;;;5098259;28;20055;-77
2022/07/16 09:06:30;;;;;;;4.53;0.98;;;24.30;81.90;;;;;;5116359;28;20052;-77
2022/07/16 09:08:58;;;;;;;5.28;1.20;;;25.00;80.30;;;;;;5115804;28;20127;-79
2022/07/16 09:11:27;;;;;;;5.28;0.90;;;25.80;79.30;;;;;;5099446;27;20047;-78
2022/07/16 09:14:05;;;;;;;3.80;1.02;;;26.40;78.10;;;;;;5136449;27;20441;-77
2022/07/16 09:16:36;;;;;;;5.03;1.35;;;26.60;74.20;;;;;;5127461;27;20043;-77
2022/07/16 09:19:10;;;;;;;5.53;1.10;;;26.90;73.70;;;;;;5111175;27;20078;-77
2022/07/16 09:21:38;;;;;;;3.03;1.08;;;27.20;72.80;;;;;;5106701;28;20044;-76
2022/07/16 09:24:05;;;;;;;3.15;1.00;;;26.70;72.10;;;;;;5097093;28;20462;-77
2022/07/16 09:26:32;;;;;;;4.35;1.15;;;27.00;71.90;;;;;;5112283;27;20460;-78
2022/07/16 09:29:02;;;;;;;4.40;1.15;;;26.60;71.70;;;;;;5116235;27;20070;-78
2022/07/16 09:31:35;;;;;;;10.85;1.85;;;26.80;71.10;;;;;;5106085;28;20081;-77
2022/07/16 09:34:04;;;;;;;6.78;1.30;;;27.00;70.00;;;;;;5099787;27;20043;-78
2022/07/16 09:36:32;;;;;;;2.40;0.83;;;27.50;70.70;;;;;;5117976;27;20406;-77
2022/07/16 09:38:59;;;;;;;4.30;1.05;;;28.20;69.30;;;;;;5113225;28;20602;-77
2022/07/16 09:41:26;;;;;;;4.40;1.15;;;28.70;68.90;;;;;;5133920;27;20051;-78
2022/07/16 09:43:54;;;;;;;4.38;1.13;;;28.90;68.10;;;;;;5126576;27;20510;-78
2022/07/16 09:46:22;;;;;;;4.75;1.20;;;29.20;68.00;;;;;;5123700;27;20067;-79
2022/07/16 09:48:50;;;;;;;4.28;1.00;;;28.80;67.20;;;;;;5096267;28;20051;-78
2022/07/16 09:51:20;;;;;;;4.03;0.90;;;28.70;67.60;;;;;;5104037;27;20051;-77
2022/07/16 09:53:49;;;;;;;4.10;1.00;;;29.20;66.40;;;;;;5118147;27;20422;-79
2022/07/16 09:56:18;;;;;;;5.38;1.20;;;29.60;65.10;;;;;;5102410;27;20104;-81
2022/07/16 09:58:50;;;;;;;2.00;0.73;;;29.90;64.30;;;;;;5115766;27;20043;-79
2022/07/16 10:01:17;;;;;;;3.65;0.90;;;29.90;62.80;;;;;;5107985;28;20059;-77
2022/07/16 10:03:45;;;;;;;2.85;0.80;;;29.50;62.40;;;;;;5113450;27;20132;-77
2022/07/16 10:06:12;;;;;;;4.20;0.80;;;29.70;62.50;;;;;;5106851;27;20051;-78
2022/07/16 10:08:40;;;;;;;2.70;0.77;;;29.70;61.90;;;;;;5095409;28;20043;-78
2022/07/16 10:11:10;;;;;;;5.45;1.10;;;29.90;61.60;;;;;;5114610;28;20117;-78
2022/07/16 10:13:41;;;;;;;3.85;0.98;;;29.90;61.10;;;;;;5113221;28;20430;-77
2022/07/16 10:16:08;;;;;;;3.78;1.10;;;29.90;60.50;;;;;;5108732;28;20570;-79
2022/07/16 10:18:40;;;;;;;3.40;1.00;;;30.30;60.20;;;;;;5129641;27;20047;-79
2022/07/16 10:21:11;;;;;;;3.78;0.90;;;30.30;59.30;;;;;;5102035;27;20436;-77
2022/07/16 10:23:40;;;;;;;2.05;0.73;;;29.70;59.60;;;;;;5113734;27;20096;-78
2022/07/16 10:26:09;;;;;;;4.75;1.38;;;28.60;61.10;;;;;;5098964;28;20502;-78
2022/07/16 10:28:51;;;;;;;4.47;0.95;;;28.00;62.20;;;;;;5118147;27;20043;-78
2022/07/16 10:31:38;;;;;;;3.40;0.90;;;28.30;62.70;;;;;;5127344;27;20483;-79
2022/07/16 10:34:39;;;;;;;5.60;1.30;;;29.00;60.80;;;;;;5119229;27;20495;-78
2022/07/16 10:37:09;;;;;;;2.03;0.93;;;29.20;60.00;;;;;;5094572;28;20146;-79
2022/07/16 10:39:59;;;;;;;4.60;1.38;;;29.40;61.60;;;;;;5101399;27;20040;-79
2022/07/16 10:42:28;;;;;;;3.58;1.10;;;28.90;59.70;;;;;;5125484;27;20078;-79
2022/07/16 10:44:55;;;;;;;3.60;1.05;;;29.10;61.40;;;;;;5117386;27;20048;-79
2022/07/16 10:47:42;;;;;;;13.23;2.17;;;29.10;62.10;;;;;;5104676;27;20130;-84
2022/07/16 10:50:18;;;;;;;5.68;1.48;;;29.00;62.20;;;;;;5108058;27;20555;-84
2022/07/16 10:52:48;;;;;;;6.70;1.60;;;28.50;61.60;;;;;;5098620;28;20080;-84
2022/07/16 10:55:33;;;;;;;3.30;0.85;;;28.00;62.40;;;;;;5111754;27;20501;-84
2022/07/16 10:58:03;;;;;;;2.55;1.05;;;28.00;62.00;;;;;;5111238;27;20044;-83
2022/07/16 11:00:30;;;;;;;;;;;28.20;63.00;;;;;;5114962;27;20047;-83
2022/07/16 11:02:59;;;;;;;5.85;1.42;;;27.60;63.50;;;;;;5094242;28;19965;-83
2022/07/16 11:05:29;;;;;;;9.60;1.60;;;27.10;64.30;;;;;;5113360;27;20130;-85
2022/07/16 11:08:06;;;;;;;;;;;26.90;64.20;;;;;;5094648;28;20089;-82
2022/07/16 11:10:33;;;;;;;6.95;1.20;;;27.20;65.80;;;;;;5107325;27;20359;-83
2022/07/16 11:13:01;;;;;;;3.53;1.10;;;27.80;65.40;;;;;;5127578;27;20047;-84
2022/07/16 11:15:29;;;;;;;6.03;1.20;;;27.80;65.00;;;;;;5132408;27;20051;-84
2022/07/16 11:17:57;;;;;;;3.97;1.27;;;28.00;65.30;;;;;;5103743;27;20491;-83
2022/07/16 11:20:35;;;;;;;8.40;1.58;;;28.30;64.00;;;;;;5111580;27;20062;-85
2022/07/16 11:23:06;;;;;;;10.60;1.47;;;29.00;61.90;;;;;;5105942;28;20051;-83
2022/07/16 11:25:33;;;;;;;6.03;1.30;;;29.50;62.70;;;;;;5096801;27;20313;-85
2022/07/16 11:28:03;;;;;;;4.72;1.15;;;30.00;61.40;;;;;;5130162;27;20487;-84
2022/07/16 11:30:31;;;;;;;4.85;1.02;;;29.40;59.90;;;;;;5119844;28;20111;-84
2022/07/16 11:32:59;;;;;;;4.38;1.20;;;28.90;60.90;;;;;;5133662;27;20543;-85
2022/07/16 11:35:25;;;;;;;7.20;1.35;;;29.30;61.40;;;;;;5133260;27;20700;-86
2022/07/16 11:37:54;;;;;;;4.55;1.02;;;29.30;61.50;;;;;;5112966;28;20047;-82
2022/07/16 11:40:32;;;;;;;5.68;1.20;;;29.00;61.60;;;;;;5095683;28;20084;-83
2022/07/16 11:43:00;;;;;;;4.60;1.27;;;28.60;61.30;;;;;;5095992;28;20508;-84
2022/07/16 11:45:28;;;;;;;4.07;1.17;;;28.50;61.70;;;;;;5114744;28;20051;-82
2022/07/16 11:48:12;;;;;;;3.93;1.10;;;28.10;61.70;;;;;;5111960;28;20055;-81
2022/07/16 11:50:40;;;;;;;8.13;1.48;;;28.40;60.50;;;;;;5106727;28;20051;-83
2022/07/16 11:53:06;;;;;;;4.15;1.20;;;28.80;61.00;;;;;;5101261;28;20055;-82
2022/07/16 11:55:34;;;;;;;6.53;1.52;;;29.00;60.90;;;;;;5113379;28;20055;-82
2022/07/16 11:58:00;;;;;;;3.58;1.23;;;28.80;61.30;;;;;;5094895;28;20142;-82
2022/07/16 12:00:41;;;;;;;3.50;1.00;;;29.00;61.60;;;;;;5095327;28;20074;-82
2022/07/16 12:03:11;;;;;;;2.75;1.00;;;28.80;61.10;;;;;;5113713;28;20056;-81
2022/07/16 12:05:38;;;;;;;6.65;1.63;;;28.30;61.20;;;;;;5113336;28;20101;-81
2022/07/16 12:08:05;;;;;;;6.07;1.30;;;27.90;61.60;;;;;;5098195;28;20052;-81
2022/07/16 12:10:32;;;;;;;2.90;0.85;;;28.00;62.30;;;;;;5099845;28;20113;-80
2022/07/16 12:13:03;;;;;;;4.00;1.08;;;28.10;62.30;;;;;;5098685;28;20047;-81
2022/07/16 12:15:51;;;;;;;3.63;1.00;;;27.90;61.80;;;;;;5117469;28;20491;-81
2022/07/16 12:18:18;;;;;;;4.72;1.27;;;28.40;61.80;;;;;;5116515;28;20047;-82
2022/07/16 12:20:45;;;;;;;4.45;1.25;;;28.70;61.80;;;;;;5117005;28;20395;-80
2022/07/16 12:23:14;;;;;;;4.32;1.40;;;28.60;61.40;;;;;;5117531;28;20058;-81
2022/07/16 12:25:42;;;;;;;3.10;1.23;;;28.30;61.20;;;;;;5116997;28;20044;-81
2022/07/16 12:28:11;;;;;;;4.57;1.30;;;27.90;62.10;;;;;;5117140;28;20400;-81
2022/07/16 12:30:41;;;;;;;2.60;0.98;;;28.00;61.80;;;;;;5099140;28;20055;-81
2022/07/16 12:33:20;;;;;;;5.22;1.50;;;28.40;62.10;;;;;;5098283;28;20048;-81
2022/07/16 12:35:49;;;;;;;5.07;1.20;;;28.50;62.30;;;;;;5117211;28;20047;-82
2022/07/16 12:38:49;;;;;;;3.30;1.17;;;28.90;62.20;;;;;;5099248;28;20047;-81
2022/07/16 12:41:17;;;;;;;;;;;28.70;60.60;;;;;;5098748;28;20051;-81
2022/07/16 12:43:49;;;;;;;3.28;1.00;;;28.20;60.20;;;;;;5116758;28;19928;-82
2022/07/16 12:46:18;;;;;;;5.55;1.35;;;28.40;61.60;;;;;;5098545;28;21479;-82
2022/07/16 12:48:47;;;;;;;3.35;1.02;;;28.20;61.20;;;;;;5116695;28;20107;-82
2022/07/16 12:51:16;;;;;;;3.80;1.10;;;28.70;61.10;;;;;;5116325;28;20491;-83
2022/07/16 12:53:45;;;;;;;2.53;0.90;;;29.20;61.10;;;;;;5116559;28;20055;-82
2022/07/16 12:58:57;;;;;;;3.47;1.20;;;28.80;60.90;;;;;;5116833;28;20047;-82
2022/07/16 13:01:26;;;;;;;4.00;1.42;;;29.00;60.40;;;;;;5116282;28;20055;-82